Time;durP1;ratioP1;P1;durP2;ratioP2;P2;SDS_P1;SDS_P2;PMS_P1;PMS_P2;Temp;Humidity;BMP_temperature;BMP_pressure;BME280_temperature;BME280_humidity;BME280_pressure;Samples;Min_cycle;Max_cycle;Signal;HPM_P1;HPM_P2
2023/02/19 00:01:45;;;;;;;3.88;2.05;;;;;;;5.33;100.00;100679.00;5043895;28;20045;-65
2023/02/19 00:04:20;;;;;;;4.47;2.10;;;;;;;5.28;100.00;100686.16;5039947;28;20083;-65
2023/02/19 00:06:48;;;;;;;2.72;1.95;;;;;;;5.33;100.00;100685.06;5040199;28;20064;-65
2023/02/19 00:09:16;;;;;;;4.95;2.30;;;;;;;5.27;100.00;100680.09;5038572;28;20525;-64
2023/02/19 00:11:45;;;;;;;4.57;1.65;;;;;;;5.26;100.00;100680.97;5039975;28;20049;-65
2023/02/19 00:14:15;;;;;;;4.15;2.10;;;;;;;5.24;100.00;100681.94;5036593;28;20044;-65
2023/02/19 00:16:42;;;;;;;8.05;2.33;;;;;;;5.21;100.00;100690.72;5031256;28;20047;-65
2023/02/19 00:19:13;;;;;;;3.50;1.60;;;;;;;5.19;100.00;100681.25;5029902;28;20069;-65
2023/02/19 00:21:42;;;;;;;2.92;1.60;;;;;;;5.19;100.00;100678.66;5043516;23;20270;-88
2023/02/19 00:24:51;;;;;;;2.70;1.85;;;;;;;5.21;100.00;100672.44;4987224;28;20074;-87
2023/02/19 00:27:33;;;;;;;4.15;2.13;;;;;;;5.18;100.00;100679.53;4950655;28;20364;-86
2023/02/19 00:30:16;;;;;;;3.25;1.80;;;;;;;5.16;100.00;100681.34;4972400;28;20046;-87
2023/02/19 00:33:33;;;;;;;4.43;1.70;;;;;;;5.23;100.00;100672.41;4986291;28;20042;-87
2023/02/19 00:36:19;;;;;;;2.97;1.55;;;;;;;5.22;100.00;100662.88;4988097;28;20045;-85
2023/02/19 00:39:12;;;;;;;2.75;2.08;;;;;;;5.23;100.00;100654.16;4998827;28;20065;-86
2023/02/19 00:42:00;;;;;;;3.50;2.05;;;;;;;5.26;100.00;100649.63;4982483;28;20050;-86
2023/02/19 00:44:43;;;;;;;4.55;1.90;;;;;;;5.24;100.00;100650.63;4951196;28;20062;-86
2023/02/19 00:47:25;;;;;;;3.83;1.88;;;;;;;5.21;100.00;100655.94;4960808;28;20107;-84
2023/02/19 00:50:00;;;;;;;3.88;2.05;;;;;;;5.19;100.00;100649.94;4962246;28;20320;-84
2023/02/19 00:52:42;;;;;;;3.78;2.15;;;;;;;5.15;100.00;100656.19;4871629;29;20053;-85
2023/02/19 00:55:20;;;;;;;5.05;2.60;;;;;;;5.15;100.00;100656.19;4862122;29;20109;-85
2023/02/19 00:57:53;;;;;;;3.42;2.63;;;;;;;5.11;100.00;100651.97;4847144;29;20354;-84
2023/02/19 01:00:26;;;;;;;4.20;2.50;;;;;;;5.07;100.00;100652.06;4885751;29;20082;-86
2023/02/19 01:03:03;;;;;;;5.28;2.42;;;;;;;5.04;100.00;100652.19;4905332;29;20078;-84
2023/02/19 01:05:53;;;;;;;4.15;2.67;;;;;;;5.04;100.00;100641.78;4908591;29;20136;-85
2023/02/19 01:08:51;;;;;;;5.03;3.10;;;;;;;5.10;100.00;100642.44;4890823;29;20154;-87
2023/02/19 01:11:35;;;;;;;6.50;3.35;;;;;;;5.06;100.00;100637.31;4892470;29;20048;-85
2023/02/19 01:14:32;;;;;;;4.25;2.90;;;;;;;5.07;100.00;100631.19;4931905;29;20107;-85
2023/02/19 01:17:07;;;;;;;4.38;2.85;;;;;;;5.14;100.00;100629.22;4944878;29;20074;-86
2023/02/19 01:20:30;;;;;;;5.47;3.08;;;;;;;5.18;100.00;100627.34;4917854;29;20103;-85
2023/02/19 01:23:05;;;;;;;3.40;2.55;;;;;;;5.20;100.00;100631.59;4917776;29;20158;-84
2023/02/19 01:25:50;;;;;;;4.13;2.83;;;;;;;5.23;100.00;100623.69;4896982;29;20103;-86
2023/02/19 01:29:18;;;;;;;3.85;3.33;;;;;;;5.21;100.00;100608.97;4925924;29;20450;-85
2023/02/19 01:32:19;;;;;;;4.78;3.35;;;;;;;5.14;100.00;100607.50;4977842;28;20132;-84
2023/02/19 01:35:11;;;;;;;4.10;3.35;;;;;;;5.12;100.00;100591.88;5003484;28;20037;-84
2023/02/19 01:37:52;;;;;;;4.55;3.17;;;;;;;5.13;100.00;100574.47;4995365;28;20042;-82
2023/02/19 01:41:16;;;;;;;6.38;3.78;;;;;;;5.09;100.00;100581.59;4998798;28;20057;-85
2023/02/19 01:48:38;;;;;;;6.40;3.47;;;;;;;5.06;100.00;100589.50;4913997;29;20079;-82
2023/02/19 01:51:17;;;;;;;;;;;;;;;5.03;100.00;100592.22;4850101;29;20046;-83
2023/02/19 01:54:12;;;;;;;4.68;2.53;;;;;;;5.05;100.00;100578.22;4860274;29;19923;-87
2023/02/19 01:56:58;;;;;;;5.45;3.50;;;;;;;5.11;100.00;100584.97;4941255;28;20050;-86
2023/02/19 02:00:15;;;;;;;5.47;3.35;;;;;;;5.22;100.00;100579.34;4987124;28;20046;-88
2023/02/19 02:03:36;;;;;;;4.72;3.03;;;;;;;5.26;100.00;100575.72;4945329;28;20511;-87
2023/02/19 02:07:00;;;;;;;7.88;3.45;;;;;;;5.28;100.00;100569.53;4985551;28;20065;-86
2023/02/19 02:13:47;;;;;;;6.88;4.30;;;;;;;5.12;100.00;100550.13;4994032;28;20046;-89
2023/02/19 02:16:43;;;;;;;7.65;4.30;;;;;;;5.05;100.00;100553.91;4948423;28;20060;-89
2023/02/19 02:20:09;;;;;;;6.57;4.38;;;;;;;5.09;100.00;100555.50;4978693;28;20053;-89
2023/02/19 02:23:40;;;;;;;6.57;4.38;;;;;;;5.17;100.00;100563.84;4969783;28;20153;-88
2023/02/19 02:27:13;;;;;;;6.93;5.38;;;;;;;5.15;100.00;100568.31;4978913;28;20057;-89
2023/02/19 02:30:50;;;;;;;8.18;5.43;;;;;;;5.21;100.00;100567.22;4961605;28;20381;-88
2023/02/19 02:38:00;;;;;;;10.60;5.20;;;;;;;5.00;100.00;100572.34;4955002;28;20139;-86
2023/02/19 02:40:53;;;;;;;15.93;5.63;;;;;;;5.06;100.00;100558.22;4931794;28;20074;-86
2023/02/19 02:44:07;;;;;;;7.70;5.13;;;;;;;5.03;100.00;100559.16;4919701;28;20970;-86
2023/02/19 02:46:58;;;;;;;7.00;4.70;;;;;;;5.00;100.00;100555.84;4912467;29;20053;-86
2023/02/19 02:50:03;;;;;;;8.25;5.00;;;;;;;4.95;100.00;100553.38;4967153;28;20509;-86
2023/02/19 02:55:59;;;;;;;8.43;5.55;;;;;;;5.04;100.00;100560.00;5007552;28;20070;-86
2023/02/19 02:59:49;;;;;;;8.55;4.22;;;;;;;4.98;100.00;100563.69;4978287;28;20065;-84
2023/02/19 03:06:34;;;;;;;9.20;4.47;;;;;;;4.99;100.00;100568.00;4932688;29;20040;-85
2023/02/19 03:09:48;;;;;;;7.10;3.80;;;;;;;5.07;100.00;100568.56;4888532;29;20063;-85
2023/02/19 03:19:42;;;;;;;9.88;4.65;;;;;;;4.89;100.00;100573.63;4933896;29;20288;-86
2023/02/19 03:22:48;;;;;;;15.27;5.63;;;;;;;4.87;100.00;100583.28;4841500;29;20057;-86
2023/02/19 03:29:28;;;;;;;11.70;5.25;;;;;;;4.71;100.00;100588.16;4851545;29;20071;-86
2023/02/19 03:33:09;;;;;;;8.52;4.35;;;;;;;4.73;100.00;100589.84;4873078;29;20096;-86
2023/02/19 03:35:49;;;;;;;8.35;4.70;;;;;;;4.67;100.00;100583.97;4884033;29;20105;-87
2023/02/19 03:39:03;;;;;;;10.95;5.57;;;;;;;4.66;100.00;100588.34;4871573;29;20144;-88
2023/02/19 03:42:28;;;;;;;9.07;5.03;;;;;;;4.60;100.00;100592.94;4895980;29;20075;-87
2023/02/19 03:46:00;;;;;;;7.82;5.15;;;;;;;4.57;100.00;100591.25;4936219;29;20044;-87
2023/02/19 03:49:29;;;;;;;9.20;3.90;;;;;;;4.37;100.00;100596.28;4909112;29;20067;-87
2023/02/19 03:52:38;;;;;;;8.07;2.42;;;;;;;4.22;100.00;100595.91;4891805;29;20105;-87
2023/02/19 03:55:21;;;;;;;6.05;2.85;;;;;;;4.21;100.00;100598.56;4898958;29;20622;-86
2023/02/19 03:58:29;;;;;;;10.82;2.80;;;;;;;4.28;100.00;100602.69;4897450;29;20059;-87
2023/02/19 04:05:46;;;;;;;6.30;2.40;;;;;;;4.22;100.00;100595.06;4991421;28;20049;-88
2023/02/19 04:09:09;;;;;;;8.60;2.92;;;;;;;4.19;100.00;100605.59;4976613;28;20096;-87
2023/02/19 04:12:16;;;;;;;6.85;2.65;;;;;;;4.10;100.00;100613.69;4970333;28;20057;-87
2023/02/19 04:15:50;;;;;;;7.00;3.50;;;;;;;4.02;100.00;100613.97;4958352;28;20141;-88
2023/02/19 04:18:25;;;;;;;8.40;3.13;;;;;;;3.83;100.00;100616.31;4993295;28;20062;-86
2023/02/19 04:21:07;;;;;;;7.50;3.63;;;;;;;3.78;100.00;100623.38;4950795;28;20113;-86
2023/02/19 04:23:49;;;;;;;5.85;3.15;;;;;;;3.76;100.00;100626.03;4964936;28;20065;-86
2023/02/19 04:27:18;;;;;;;;;;;;;;;;;;;;;
2023/02/19 04:30:55;;;;;;;8.07;3.10;;;;;;;3.55;100.00;100626.69;4927667;28;20046;-85
2023/02/19 04:39:12;;;;;;;9.82;2.85;;;;;;;3.53;100.00;100639.75;4985248;28;20053;-84
2023/02/19 04:43:08;;;;;;;9.95;3.13;;;;;;;3.49;100.00;100645.94;4937265;29;20059;-85
2023/02/19 04:50:58;;;;;;;;;;;;;;;;;;;;;
2023/02/19 04:58:24;;;;;;;7.07;2.80;;;;;;;3.65;100.00;100643.75;4790138;29;20050;-86
2023/02/19 05:01:24;;;;;;;9.38;2.10;;;;;;;3.68;100.00;100654.06;4830457;29;20061;-84
2023/02/19 05:04:08;;;;;;;7.00;2.20;;;;;;;3.55;100.00;100653.56;4826568;29;20511;-84
2023/02/19 05:07:45;;;;;;;6.07;2.38;;;;;;;3.56;100.00;100654.44;4918260;29;20068;-86
2023/02/19 05:10:22;;;;;;;4.57;2.45;;;;;;;3.52;100.00;100658.88;4937766;28;20024;-85
2023/02/19 05:13:05;;;;;;;6.00;2.28;;;;;;;3.60;100.00;100661.22;4958640;28;20050;-85
2023/02/19 05:16:34;;;;;;;7.13;2.60;;;;;;;3.65;100.00;100656.75;4909002;29;20039;-85
2023/02/19 05:19:33;;;;;;;6.55;3.15;;;;;;;3.70;100.00;100662.69;4893819;29;20124;-84
2023/02/19 05:22:27;;;;;;;6.68;2.90;;;;;;;3.65;100.00;100655.88;4816066;29;20069;-86
2023/02/19 05:26:35;;;;;;;6.53;3.08;;;;;;;3.51;100.00;100644.16;4824302;29;20057;-86
2023/02/19 05:29:38;;;;;;;6.22;3.33;;;;;;;3.62;100.00;100645.59;4893803;29;20060;-85
2023/02/19 05:32:25;;;;;;;5.22;3.08;;;;;;;3.62;100.00;100650.78;4844545;29;20098;-84
2023/02/19 05:35:18;;;;;;;5.93;3.10;;;;;;;3.59;100.00;100645.66;4861790;29;20057;-86
2023/02/19 05:38:24;;;;;;;6.20;2.80;;;;;;;3.49;100.00;100658.09;4879381;29;20100;-84
2023/02/19 05:41:58;;;;;;;5.50;3.05;;;;;;;3.49;100.00;100652.91;4920164;29;20081;-86
2023/02/19 05:45:14;;;;;;;5.97;2.83;;;;;;;3.39;100.00;100654.06;4921430;29;20051;-85
2023/02/19 05:48:24;;;;;;;10.73;3.05;;;;;;;3.45;100.00;100654.72;4927935;29;20075;-86
2023/02/19 05:59:17;;;;;;;5.60;2.53;;;;;;;3.51;100.00;100672.78;4887450;29;20111;-84
2023/02/19 06:01:57;;;;;;;5.30;2.60;;;;;;;3.50;100.00;100673.66;4920871;29;20072;-83
2023/02/19 06:04:40;;;;;;;10.95;3.20;;;;;;;3.31;100.00;100662.09;4879546;29;20075;-83
2023/02/19 06:07:41;;;;;;;8.25;3.50;;;;;;;3.22;100.00;100667.56;4871310;29;20092;-84
2023/02/19 06:10:28;;;;;;;10.32;3.25;;;;;;;3.28;100.00;100663.00;4830176;29;20527;-84
2023/02/19 06:13:35;;;;;;;6.07;3.15;;;;;;;3.30;100.00;100658.63;4821332;29;20091;-86
2023/02/19 06:17:03;;;;;;;11.95;2.75;;;;;;;3.25;100.00;100664.88;4832525;29;20056;-87
2023/02/19 06:20:06;;;;;;;9.27;2.80;;;;;;;3.25;100.00;100663.13;4907003;29;20143;-87
2023/02/19 06:22:54;;;;;;;6.75;2.58;;;;;;;3.21;100.00;100664.09;4910740;29;20590;-88
2023/02/19 06:25:22;;;;;;;7.13;2.63;;;;;;;3.26;100.00;100669.19;4929355;29;20395;-87
2023/02/19 06:28:27;;;;;;;7.22;2.75;;;;;;;3.25;100.00;100659.66;4906305;29;20148;-87
2023/02/19 06:31:10;;;;;;;5.97;3.13;;;;;;;3.27;100.00;100669.13;4890277;29;20064;-86
2023/02/19 06:33:54;;;;;;;7.97;2.78;;;;;;;3.13;100.00;100681.66;4900399;29;20063;-88
2023/02/19 06:36:59;;;;;;;8.80;2.25;;;;;;;2.99;100.00;100691.59;5008317;28;20527;-87
2023/02/19 06:39:52;;;;;;;8.57;2.42;;;;;;;2.92;100.00;100700.44;4979823;28;20057;-87
2023/02/19 06:43:07;;;;;;;9.50;2.17;;;;;;;2.97;100.00;100715.06;4970210;28;20049;-87
2023/02/19 06:45:53;;;;;;;7.28;2.50;;;;;;;2.89;100.00;100722.19;4956684;28;20048;-88
2023/02/19 06:48:45;;;;;;;11.05;2.42;;;;;;;2.90;100.00;100729.09;4933850;29;20060;-86
2023/02/19 06:51:38;;;;;;;9.20;2.88;;;;;;;2.86;100.00;100737.00;4881444;29;21078;-87
2023/02/19 06:54:13;;;;;;;7.53;2.45;;;;;;;2.85;100.00;100740.50;4884539;29;20049;-88
2023/02/19 06:56:53;;;;;;;9.77;2.88;;;;;;;2.93;100.00;100744.63;4849889;29;20073;-88
2023/02/19 06:59:30;;;;;;;7.75;2.30;;;;;;;3.00;100.00;100742.69;4926348;29;20070;-89
2023/02/19 07:02:44;;;;;;;7.82;2.92;;;;;;;3.05;100.00;100753.84;4928696;29;20045;-88
2023/02/19 07:06:32;;;;;;;6.32;2.13;;;;;;;2.97;100.00;100754.06;4971860;28;20047;-89
2023/02/19 07:09:13;;;;;;;7.40;2.22;;;;;;;2.94;100.00;100751.53;4940055;28;20046;-86
2023/02/19 07:12:00;;;;;;;10.38;2.40;;;;;;;2.93;100.00;100757.63;4963297;28;20047;-88
2023/02/19 07:15:45;;;;;;;5.57;1.90;;;;;;;2.86;100.00;100760.41;4980728;28;20054;-86
2023/02/19 07:18:20;;;;;;;9.30;2.35;;;;;;;2.76;100.00;100759.78;5001896;28;20039;-85
2023/02/19 07:21:19;;;;;;;6.18;2.25;;;;;;;2.72;100.00;100772.00;4978322;28;20054;-85
2023/02/19 07:23:53;;;;;;;8.07;2.50;;;;;;;2.80;100.00;100777.03;4970066;28;20054;-84
2023/02/19 07:26:37;;;;;;;12.50;2.80;;;;;;;2.75;100.00;100781.47;4974468;28;20061;-86
2023/02/19 07:29:29;;;;;;;13.40;2.33;;;;;;;2.70;100.00;100783.31;4983609;28;20125;-85
2023/02/19 07:32:09;;;;;;;9.95;2.65;;;;;;;2.70;100.00;100794.59;4948926;28;20057;-85
2023/02/19 07:34:54;;;;;;;3.78;2.00;;;;;;;2.69;100.00;100800.66;4894434;29;20526;-87
2023/02/19 07:37:45;;;;;;;7.28;2.72;;;;;;;2.76;100.00;100801.38;4894650;29;20058;-85
2023/02/19 07:40:59;;;;;;;9.80;2.85;;;;;;;2.78;100.00;100807.38;4920049;28;20028;-84
2023/02/19 07:43:36;;;;;;;11.55;3.13;;;;;;;2.80;100.00;100803.03;4942445;28;20023;-83
2023/02/19 07:46:37;;;;;;;13.40;3.63;;;;;;;2.81;100.00;100809.06;4948376;28;20081;-85
2023/02/19 07:53:52;;;;;;;9.20;2.70;;;;;;;2.82;100.00;100819.41;5022939;28;20060;-86
2023/02/19 07:56:37;;;;;;;13.85;3.80;;;;;;;2.93;100.00;100827.84;4994751;28;20034;-85
2023/02/19 07:59:27;;;;;;;9.18;2.70;;;;;;;2.88;100.00;100834.91;4983222;28;20202;-83
2023/02/19 08:05:52;;;;;;;10.95;3.08;;;;;;;2.84;100.00;100856.66;4984395;28;20310;-84
2023/02/19 08:08:33;;;;;;;6.63;2.65;;;;;;;2.84;100.00;100859.25;4973060;28;20042;-84
2023/02/19 08:15:17;;;;;;;7.20;3.03;;;;;;;2.86;100.00;100875.66;4995526;28;20041;-86
2023/02/19 08:18:11;;;;;;;7.82;3.08;;;;;;;2.86;100.00;100873.06;4951796;28;20143;-84
2023/02/19 08:24:02;;;;;;;7.65;2.80;;;;;;;2.84;100.00;100885.25;4950496;28;20150;-85
2023/02/19 08:27:21;;;;;;;8.43;2.90;;;;;;;2.90;100.00;100892.06;4964975;28;20039;-85
2023/02/19 08:29:48;;;;;;;6.45;3.03;;;;;;;2.94;100.00;100904.94;4948297;28;20050;-87
2023/02/19 08:32:25;;;;;;;7.30;2.33;;;;;;;2.98;100.00;100911.78;4966195;28;20174;-87
2023/02/19 08:35:23;;;;;;;12.70;3.38;;;;;;;3.00;100.00;100912.59;4965503;28;20037;-87
2023/02/19 08:39:16;;;;;;;9.13;3.15;;;;;;;3.07;100.00;100923.72;4960953;28;20061;-87
2023/02/19 08:42:12;;;;;;;5.95;2.55;;;;;;;3.14;100.00;100925.28;4998627;28;21296;-87
2023/02/19 08:45:09;;;;;;;8.38;2.75;;;;;;;3.32;100.00;100931.78;4928621;28;20058;-86
2023/02/19 08:47:52;;;;;;;6.78;2.90;;;;;;;3.34;100.00;100930.03;4992145;28;20050;-87
2023/02/19 08:50:40;;;;;;;8.13;2.88;;;;;;;3.40;100.00;100934.22;4949295;28;20452;-86
2023/02/19 08:54:13;;;;;;;14.45;2.90;;;;;;;3.46;100.00;100942.72;4925366;29;20508;-87
2023/02/19 08:56:54;;;;;;;13.07;3.00;;;;;;;3.49;99.92;100952.22;4954674;28;20051;-88
2023/02/19 08:59:38;;;;;;;12.93;2.80;;;;;;;3.53;99.52;100959.91;4913530;28;20461;-87
2023/02/19 09:02:14;;;;;;;7.97;2.47;;;;;;;3.59;98.94;100961.50;4926258;29;20043;-88
2023/02/19 09:05:24;;;;;;;11.82;2.83;;;;;;;3.67;98.65;100969.13;4946715;29;20106;-87
2023/02/19 09:08:50;;;;;;;8.13;2.92;;;;;;;3.82;98.84;100981.75;4918048;28;20055;-86
2023/02/19 09:11:44;;;;;;;7.30;2.28;;;;;;;3.99;96.87;100979.56;4932895;28;20056;-84
2023/02/19 09:14:25;;;;;;;6.78;2.38;;;;;;;3.94;96.76;100978.00;4975625;28;20038;-84
2023/02/19 09:17:27;;;;;;;11.73;2.47;;;;;;;3.91;96.69;100991.09;4999780;28;20073;-85
2023/02/19 09:20:19;;;;;;;7.90;2.28;;;;;;;3.92;96.91;100991.06;4986841;28;20121;-87
2023/02/19 09:23:46;;;;;;;7.60;2.58;;;;;;;3.94;95.57;100978.84;4969060;28;20054;-90
2023/02/19 09:27:04;;;;;;;9.27;2.13;;;;;;;3.94;94.74;100997.06;4984381;28;20039;-87
2023/02/19 09:33:22;;;;;;;10.40;2.40;;;;;;;3.91;93.97;100991.94;4968188;28;20054;-87
2023/02/19 09:36:38;;;;;;;13.43;2.13;;;;;;;3.97;94.57;101014.38;4909743;29;20048;-86
2023/02/19 09:40:22;;;;;;;6.65;2.03;;;;;;;4.07;95.06;101003.69;4872703;29;20056;-88
2023/02/19 09:42:55;;;;;;;17.10;2.65;;;;;;;4.05;93.75;101005.47;4813193;29;20161;-89
2023/02/19 09:46:33;;;;;;;8.85;2.10;;;;;;;4.20;94.38;101008.56;4869485;29;20081;-89
2023/02/19 09:49:40;;;;;;;9.40;2.00;;;;;;;4.22;93.31;101009.38;4871152;29;20087;-88
2023/02/19 09:52:43;;;;;;;9.63;2.17;;;;;;;4.22;93.11;101019.81;4825870;29;20053;-88
2023/02/19 09:55:42;;;;;;;10.13;2.08;;;;;;;4.19;91.07;101019.91;4881285;29;20683;-87
2023/02/19 10:03:40;;;;;;;11.95;2.10;;;;;;;4.42;90.69;101032.31;4852811;29;20064;-88
2023/02/19 10:06:48;;;;;;;8.93;1.95;;;;;;;4.50;89.05;101040.75;4884237;29;20109;-87
2023/02/19 10:14:42;;;;;;;9.02;2.42;;;;;;;4.54;86.57;101045.84;4785695;29;20190;-85
2023/02/19 10:17:44;;;;;;;12.82;2.75;;;;;;;4.62;85.83;101053.47;4778231;29;20052;-86
2023/02/19 10:20:59;;;;;;;8.43;2.60;;;;;;;4.76;86.68;101068.75;4741686;30;20266;-88
2023/02/19 10:24:06;;;;;;;7.40;1.90;;;;;;;4.78;85.38;101077.41;4755960;29;20194;-84
2023/02/19 10:27:26;;;;;;;7.63;1.65;;;;;;;4.68;83.43;101078.53;4834429;29;20057;-85
2023/02/19 10:34:42;;;;;;;12.57;2.22;;;;;;;4.92;84.54;101085.69;4909211;29;20046;-85
2023/02/19 10:37:53;;;;;;;12.98;2.45;;;;;;;5.03;83.61;101096.66;4931734;28;20060;-86
2023/02/19 10:41:08;;;;;;;7.22;1.70;;;;;;;4.96;79.72;101102.13;4956343;28;20075;-85
2023/02/19 10:44:23;;;;;;;7.72;1.50;;;;;;;5.01;81.81;101101.09;4927700;28;20210;-85
2023/02/19 10:46:59;;;;;;;8.65;2.15;;;;;;;5.10;80.16;101096.50;4955698;28;20043;-84
2023/02/19 10:49:42;;;;;;;6.07;1.85;;;;;;;5.29;81.94;101105.50;4975642;28;20130;-84
2023/02/19 10:52:56;;;;;;;14.07;2.63;;;;;;;5.52;81.82;101107.41;4995714;28;20140;-85
2023/02/19 10:59:33;;;;;;;8.40;1.80;;;;;;;5.58;80.08;101115.06;4988580;28;20033;-86
2023/02/19 11:02:43;;;;;;;8.13;2.03;;;;;;;5.55;76.60;101126.47;4946480;28;20584;-86
2023/02/19 11:06:09;;;;;;;7.82;1.88;;;;;;;5.49;76.13;101131.88;4936853;28;20103;-85
2023/02/19 11:09:57;;;;;;;8.77;2.00;;;;;;;5.56;75.79;101133.41;4950631;28;20064;-84
2023/02/19 11:13:42;;;;;;;10.88;2.38;;;;;;;5.63;74.03;101134.09;4984089;28;20057;-85
2023/02/19 11:17:28;;;;;;;7.05;1.52;;;;;;;5.56;73.50;101164.75;4942230;29;20512;-85
2023/02/19 11:20:22;;;;;;;6.60;1.25;;;;;;;5.56;71.38;101153.44;4946152;28;20035;-85
2023/02/19 11:23:45;;;;;;;11.35;1.40;;;;;;;5.45;71.85;101163.31;4934418;28;20395;-86
2023/02/19 11:26:27;;;;;;;5.53;1.40;;;;;;;5.49;70.83;101178.91;4879571;29;20048;-86
2023/02/19 11:29:27;;;;;;;9.35;1.95;;;;;;;5.61;71.15;101176.81;4927818;29;20502;-87
2023/02/19 11:32:49;;;;;;;6.95;1.45;;;;;;;5.76;72.70;101171.13;4946257;28;20381;-85
2023/02/19 11:36:10;;;;;;;7.82;2.45;;;;;;;5.88;71.10;101173.38;4924050;28;20138;-87
2023/02/19 11:39:50;;;;;;;5.70;1.73;;;;;;;6.18;69.80;101162.91;4955005;28;20051;-87
2023/02/19 11:43:36;;;;;;;5.83;2.33;;;;;;;6.55;69.01;101175.63;4943102;29;20106;-86
2023/02/19 11:55:04;;;;;;;7.32;1.40;;;;;;;7.10;64.03;101161.47;4936671;28;20062;-86
2023/02/19 11:58:13;;;;;;;5.30;1.35;;;;;;;7.26;61.50;101174.03;4917559;29;20633;-85
2023/02/19 12:08:36;;;;;;;4.50;1.10;;;;;;;8.51;61.04;101177.03;4938814;28;20051;-89
2023/02/19 12:11:45;;;;;;;7.47;1.13;;;;;;;9.73;55.18;101177.81;4950190;28;20619;-87
2023/02/19 12:15:05;;;;;;;7.95;1.50;;;;;;;9.84;52.50;101191.28;4967529;28;20620;-86
2023/02/19 12:17:58;;;;;;;3.63;1.35;;;;;;;10.06;52.45;101189.34;4990836;28;20216;-88
2023/02/19 12:20:57;;;;;;;4.82;1.10;;;;;;;10.01;54.25;101186.09;4978389;28;20350;-87
2023/02/19 12:24:27;;;;;;;7.72;1.40;;;;;;;9.76;52.10;101196.91;4990982;28;20093;-85
2023/02/19 12:27:37;;;;;;;6.47;1.67;;;;;;;8.91;54.04;101188.44;4975132;28;20038;-89
2023/02/19 12:35:27;;;;;;;4.40;1.25;;;;;;;10.49;55.77;101199.59;4995467;28;20088;-88
2023/02/19 12:38:34;;;;;;;5.82;1.73;;;;;;;10.90;53.75;101205.44;4957402;28;20065;-88
2023/02/19 12:42:28;;;;;;;5.65;1.70;;;;;;;11.06;48.26;101208.97;5000613;28;20050;-90
2023/02/19 12:53:43;;;;;;;3.83;0.93;;;;;;;11.21;47.50;101209.09;4971635;28;20054;-88
2023/02/19 12:56:59;;;;;;;8.23;1.85;;;;;;;11.07;45.50;101223.84;4927484;28;20123;-89
2023/02/19 13:00:38;;;;;;;3.47;1.10;;;;;;;11.16;47.26;101217.25;4909016;29;20048;-88
2023/02/19 13:04:09;;;;;;;5.75;1.52;;;;;;;10.96;47.77;101218.28;4933984;29;20052;-87
2023/02/19 13:07:24;;;;;;;4.15;1.63;;;;;;;11.80;48.70;101221.75;4863540;29;20104;-88
2023/02/19 13:10:57;;;;;;;6.70;1.50;;;;;;;12.08;45.93;101228.19;4745808;30;20136;-89
2023/02/19 13:17:27;;;;;;;3.15;1.52;;;;;;;11.43;44.18;101248.38;4782334;29;20054;-88
2023/02/19 13:20:42;;;;;;;4.95;1.25;;;;;;;11.62;44.73;101244.69;4865383;29;20167;-88
2023/02/19 13:24:10;;;;;;;8.13;1.88;;;;;;;11.88;43.83;101253.84;4928198;29;20039;-87
2023/02/19 13:27:48;;;;;;;3.22;1.00;;;;;;;11.44;46.86;101247.44;4942905;29;20091;-84
2023/02/19 13:35:01;;;;;;;8.57;1.40;;;;;;;9.53;48.23;101266.28;4938122;29;20034;-85
2023/02/19 13:38:15;;;;;;;6.55;1.40;;;;;;;8.75;49.32;101251.25;4960012;28;20162;-86
2023/02/19 13:41:17;;;;;;;2.88;0.98;;;;;;;8.62;52.69;101250.06;4910291;29;20052;-84
2023/02/19 13:44:24;;;;;;;7.20;1.38;;;;;;;8.65;50.99;101260.44;4935533;29;20050;-84
2023/02/19 13:51:20;;;;;;;3.13;1.13;;;;;;;9.44;51.91;101255.34;4983396;28;20117;-85
2023/02/19 13:53:59;;;;;;;6.75;1.70;;;;;;;9.73;47.18;101256.69;4974850;28;20046;-89
2023/02/19 13:56:32;;;;;;;3.38;1.20;;;;;;;9.79;47.12;101264.28;4968037;28;20061;-89
2023/02/19 13:59:39;;;;;;;6.20;1.48;;;;;;;9.83;47.17;101264.06;4966612;28;20130;-87
2023/02/19 14:02:44;;;;;;;6.05;1.10;;;;;;;9.41;50.25;101273.84;4848383;29;20077;-89
2023/02/19 14:06:07;;;;;;;5.88;1.25;;;;;;;9.23;50.35;101284.28;4892097;29;20181;-88
2023/02/19 14:09:00;;;;;;;7.38;1.50;;;;;;;8.77;49.70;101290.56;4927108;29;20055;-88
2023/02/19 14:11:47;;;;;;;6.07;1.50;;;;;;;8.12;49.99;101293.06;4918036;29;20108;-88
2023/02/19 14:15:27;;;;;;;4.47;1.48;;;;;;;7.90;50.65;101305.28;4924021;29;20054;-87
2023/02/19 14:18:45;;;;;;;6.70;1.23;;;;;;;8.17;50.10;101298.16;4915393;29;20107;-87
2023/02/19 14:21:44;;;;;;;8.80;1.25;;;;;;;7.87;51.62;101300.13;4916831;29;20435;-87
2023/02/19 14:24:27;;;;;;;8.40;1.20;;;;;;;7.72;50.97;101300.72;4874625;29;20144;-87
2023/02/19 14:27:01;;;;;;;3.63;1.17;;;;;;;7.73;51.89;101307.66;4879901;29;20056;-87
2023/02/19 14:29:43;;;;;;;5.20;1.23;;;;;;;7.72;50.38;101309.44;4874543;29;20108;-89
2023/02/19 14:32:24;;;;;;;3.10;1.17;;;;;;;7.69;51.43;101291.19;4875130;29;20097;-87
2023/02/19 14:35:20;;;;;;;5.05;1.50;;;;;;;7.54;51.24;101286.50;4903268;29;20114;-87
2023/02/19 14:38:29;;;;;;;5.40;1.48;;;;;;;7.57;51.91;101287.25;4899498;29;20050;-87
2023/02/19 14:41:37;;;;;;;7.47;1.52;;;;;;;7.89;52.10;101294.88;4990835;28;20082;-87
2023/02/19 14:44:35;;;;;;;6.38;1.20;;;;;;;7.70;51.91;101286.78;4978155;28;20031;-88
2023/02/19 14:47:17;;;;;;;10.00;1.52;;;;;;;7.52;51.64;101297.06;4978998;28;20118;-86
2023/02/19 14:50:36;;;;;;;5.78;1.17;;;;;;;7.68;53.51;101301.72;4973915;28;20054;-84
2023/02/19 14:57:04;;;;;;;8.30;1.48;;;;;;;8.35;52.32;101305.31;4977253;28;20046;-85
2023/02/19 14:59:57;;;;;;;3.85;1.25;;;;;;;8.27;50.57;101311.75;4954450;28;20408;-84
2023/02/19 15:02:56;;;;;;;5.20;1.63;;;;;;;8.13;51.13;101313.13;5004565;28;20046;-85
2023/02/19 15:06:15;;;;;;;7.10;1.10;;;;;;;7.73;50.86;101313.75;4974519;28;20057;-88
2023/02/19 15:09:08;;;;;;;5.28;1.05;;;;;;;7.49;52.27;101325.13;4959705;28;20065;-87
2023/02/19 15:11:57;;;;;;;6.50;1.70;;;;;;;7.54;52.76;101331.03;4894335;29;20044;-88
2023/02/19 15:14:49;;;;;;;6.68;1.15;;;;;;;7.23;52.36;101326.84;4873087;28;20047;-87
2023/02/19 15:18:14;;;;;;;3.70;0.95;;;;;;;7.43;52.28;101326.19;4950295;28;20102;-86
2023/02/19 15:21:23;;;;;;;3.92;1.15;;;;;;;7.61;51.55;101333.41;4907757;29;20063;-86
2023/02/19 15:24:16;;;;;;;4.53;1.05;;;;;;;7.62;50.34;101329.03;4918469;29;20032;-84
2023/02/19 15:27:24;;;;;;;4.70;1.30;;;;;;;7.47;51.11;101338.25;4923424;29;20058;-86
2023/02/19 15:31:20;;;;;;;3.55;1.10;;;;;;;7.32;49.44;101333.53;4905717;28;20118;-86
2023/02/19 15:35:24;;;;;;;4.82;1.00;;;;;;;7.38;49.04;101328.09;4944271;28;20441;-86
2023/02/19 15:46:20;;;;;;;4.55;1.10;;;;;;;6.93;47.43;101333.94;4941133;28;20062;-86
2023/02/19 15:50:02;;;;;;;3.65;0.93;;;;;;;6.85;49.12;101347.31;4845516;29;20859;-86
2023/02/19 15:53:20;;;;;;;4.25;0.98;;;;;;;6.78;49.50;101356.25;4846550;29;20204;-89
2023/02/19 15:56:29;;;;;;;4.93;1.63;;;;;;;6.75;49.18;101361.56;4815215;29;20043;-87
2023/02/19 15:59:59;;;;;;;8.63;1.10;;;;;;;6.67;49.11;101366.19;4827497;29;20071;-89
2023/02/19 16:02:33;;;;;;;5.15;1.17;;;;;;;6.73;50.61;101354.69;4876794;29;20052;-88
2023/02/19 16:06:20;;;;;;;;;;;;;;;;;;;;;
2023/02/19 16:10:06;;;;;;;2.92;1.00;;;;;;;6.43;51.49;101377.38;4891785;29;20053;-87
2023/02/19 16:12:42;;;;;;;4.47;1.30;;;;;;;6.27;51.31;101390.06;4879988;28;20055;-88
2023/02/19 16:15:35;;;;;;;6.10;1.10;;;;;;;6.11;52.31;101391.41;4980907;28;20061;-88
2023/02/19 16:18:26;;;;;;;6.82;1.48;;;;;;;5.97;52.40;101387.41;4921620;29;20062;-90
2023/02/19 16:22:08;;;;;;;6.20;1.42;;;;;;;5.95;52.73;101393.59;4869733;29;20056;-87
2023/02/19 16:24:50;;;;;;;7.82;2.20;;;;;;;5.91;53.08;101395.41;4847983;29;20435;-87
2023/02/19 16:27:50;;;;;;;6.63;1.23;;;;;;;5.90;53.74;101408.50;4868527;29;20294;-87
2023/02/19 16:31:28;;;;;;;3.10;1.30;;;;;;;5.85;53.68;101416.44;4843998;29;20159;-87
2023/02/19 16:34:52;;;;;;;4.43;1.17;;;;;;;5.79;53.83;101414.88;4876545;29;20067;-87
2023/02/19 16:41:46;;;;;;;7.25;1.77;;;;;;;5.73;54.62;101425.50;4876025;29;20083;-89
2023/02/19 16:44:39;;;;;;;6.93;1.70;;;;;;;5.71;56.17;101431.63;4952788;28;20047;-88
2023/02/19 16:48:31;;;;;;;4.78;1.55;;;;;;;5.63;55.96;101426.63;4971440;28;20050;-88